Highlands, New Jersey
Current Conditions -  °F | °C
As of 5:55 PM on Friday 28 Nov 2014 (Local Time) from KBLM Reporting Station
Clear Clear  
Wind Chill: 23°   Ceiling: Unl
Heat Index: 30°   Visibility: 10mi
Dew Point: 12°   Wind: 8mph
Humidity: 47%   Direction: 290°WNW
Pressure: 30.23"   Gusts: NA
Location:  40.4°N, 73.99°W
Report Text: KBLM 282255Z AUTO 29007KT 10SM CLR M01/M11 A3023 RMK AO1
Loading
Personal Weather Stations






























Interactive Weather Map New forecast layout! Learn more

10-Day Weather Forecast

Advertisements
Track Severe Weather on mobile